Time;durP1;ratioP1;P1;durP2;ratioP2;P2;SDS_P1;SDS_P2;PMS_P1;PMS_P2;Temp;Humidity;BMP_temperature;BMP_pressure;BME280_temperature;BME280_humidity;BME280_pressure;Samples;Min_cycle;Max_cycle;Signal;HPM_P1;HPM_P2
2023/04/12 00:02:08;;;;;;;3.60;2.72;;;;;;;;;;5066940;28;20456;-81
2023/04/12 00:04:34;;;;;;;5.28;2.83;;;;;;;;;;5069482;28;20872;-82
2023/04/12 00:07:01;;;;;;;3.70;2.55;;;;;;;;;;5073106;28;20406;-82
2023/04/12 00:09:30;;;;;;;6.28;3.75;;;;;;;;;;5070100;28;20383;-81
2023/04/12 00:11:57;;;;;;;4.82;3.60;;;;;;;;;;5072829;28;20406;-81
2023/04/12 00:14:23;;;;;;;3.20;2.50;;;;;;;;;;5072687;28;20435;-81
2023/04/12 00:16:49;;;;;;;3.25;2.28;;;;;;;;;;5072836;28;20372;-81
2023/04/12 00:19:16;;;;;;;2.75;2.08;;;;;;;;;;5072661;28;20407;-81
2023/04/12 00:21:42;;;;;;;4.05;2.28;;;;;;;;;;5072719;28;20375;-81
2023/04/12 00:24:08;;;;;;;3.67;2.00;;;;;;;;;;5076730;28;20391;-81
2023/04/12 00:26:34;;;;;;;2.28;1.70;;;;;;;;;;5083966;28;20377;-81
2023/04/12 00:29:00;;;;;;;2.78;2.00;;;;;;;;;;5083995;28;20372;-81
2023/04/12 00:31:26;;;;;;;2.85;1.90;;;;;;;;;;5085855;28;20374;-81
2023/04/12 00:33:52;;;;;;;2.65;1.90;;;;;;;;;;5086133;28;20369;-81
2023/04/12 00:36:19;;;;;;;3.30;1.60;;;;;;;;;;5072240;28;20376;-81
2023/04/12 00:38:45;;;;;;;2.35;1.50;;;;;;;;;;5072525;28;20387;-81
2023/04/12 00:41:11;;;;;;;1.85;1.55;;;;;;;;;;5072227;28;20407;-81
2023/04/12 00:43:39;;;;;;;2.22;1.63;;;;;;;;;;5072499;28;20379;-82
2023/04/12 00:46:05;;;;;;;2.00;1.40;;;;;;;;;;5071969;28;20398;-81
2023/04/12 00:48:31;;;;;;;2.72;1.30;;;;;;;;;;5072060;28;20378;-81
2023/04/12 00:50:57;;;;;;;2.00;1.10;;;;;;;;;;5072106;28;20371;-81
2023/04/12 00:53:23;;;;;;;1.45;1.13;;;;;;;;;;5071994;28;20379;-81
2023/04/12 00:55:51;;;;;;;2.38;1.30;;;;;;;;;;5071975;28;20432;-81
2023/04/12 00:58:17;;;;;;;1.48;1.10;;;;;;;;;;5069008;28;20380;-81
2023/04/12 01:00:48;;;;;;;2.10;1.15;;;;;;;;;;5071983;28;20495;-81
2023/04/12 01:03:15;;;;;;;2.55;1.30;;;;;;;;;;5071425;28;20384;-81
2023/04/12 01:05:45;;;;;;;2.45;1.50;;;;;;;;;;5071945;28;20890;-81
2023/04/12 01:08:17;;;;;;;3.00;1.77;;;;;;;;;;5071212;28;20718;-81
2023/04/12 01:11:00;;;;;;;2.30;1.33;;;;;;;;;;5062160;28;20482;-81
2023/04/12 01:13:29;;;;;;;1.80;1.25;;;;;;;;;;5070239;28;20426;-81
2023/04/12 01:16:11;;;;;;;2.00;1.45;;;;;;;;;;5071750;28;20384;-81
2023/04/12 01:18:40;;;;;;;2.70;1.67;;;;;;;;;;5071755;28;20371;-81
2023/04/12 01:21:11;;;;;;;1.67;1.35;;;;;;;;;;5071652;28;20441;-81
2023/04/12 01:24:01;;;;;;;1.85;1.27;;;;;;;;;;5071433;28;20411;-81
2023/04/12 01:26:33;;;;;;;1.60;1.35;;;;;;;;;;5077613;28;20743;-81
2023/04/12 01:29:00;;;;;;;1.92;1.40;;;;;;;;;;5085446;28;20464;-82
2023/04/12 01:31:28;;;;;;;2.15;1.48;;;;;;;;;;5087592;28;20437;-81
2023/04/12 01:33:55;;;;;;;1.77;1.48;;;;;;;;;;5079779;28;20374;-81
2023/04/12 01:36:22;;;;;;;2.00;1.33;;;;;;;;;;5082288;28;20881;-82
2023/04/12 01:38:49;;;;;;;2.00;1.23;;;;;;;;;;5071394;28;20869;-83
2023/04/12 01:41:15;;;;;;;1.73;1.50;;;;;;;;;;5070303;28;20480;-83
2023/04/12 01:43:42;;;;;;;2.58;1.40;;;;;;;;;;5069962;28;20423;-83
2023/04/12 01:46:08;;;;;;;2.65;1.40;;;;;;;;;;5071092;28;20380;-83
2023/04/12 01:48:34;;;;;;;2.10;1.40;;;;;;;;;;5071372;28;20900;-83
2023/04/12 01:51:10;;;;;;;1.50;1.23;;;;;;;;;;5071398;28;20711;-83
2023/04/12 01:53:36;;;;;;;1.67;1.20;;;;;;;;;;5071295;28;20782;-83
2023/04/12 01:56:06;;;;;;;2.72;1.58;;;;;;;;;;5070785;28;20502;-83
2023/04/12 01:58:33;;;;;;;1.95;1.50;;;;;;;;;;5070402;28;20392;-84
2023/04/12 02:01:00;;;;;;;3.00;1.70;;;;;;;;;;5071100;28;20414;-83
2023/04/12 02:03:29;;;;;;;2.53;1.90;;;;;;;;;;5066105;28;20491;-83
2023/04/12 02:05:56;;;;;;;1.90;1.70;;;;;;;;;;5061668;28;20406;-83
2023/04/12 02:08:22;;;;;;;1.52;1.42;;;;;;;;;;5068908;28;20379;-83
2023/04/12 02:10:48;;;;;;;1.58;1.27;;;;;;;;;;5065148;28;20856;-84
2023/04/12 02:13:14;;;;;;;2.92;1.50;;;;;;;;;;5069449;28;20416;-83
2023/04/12 02:15:40;;;;;;;1.85;1.40;;;;;;;;;;5071212;28;20865;-83
2023/04/12 02:18:06;;;;;;;2.20;1.45;;;;;;;;;;5071376;28;20391;-83
2023/04/12 02:20:32;;;;;;;1.83;1.25;;;;;;;;;;5075031;28;20486;-83
2023/04/12 02:22:59;;;;;;;3.58;1.70;;;;;;;;;;5074780;28;20767;-83
2023/04/12 02:25:26;;;;;;;2.00;1.65;;;;;;;;;;5077075;28;20547;-82
2023/04/12 02:27:52;;;;;;;3.03;1.50;;;;;;;;;;5077780;28;20376;-82
2023/04/12 02:30:18;;;;;;;1.98;1.50;;;;;;;;;;5075114;28;20398;-82
2023/04/12 02:32:44;;;;;;;1.63;1.50;;;;;;;;;;5075143;28;20376;-84
2023/04/12 02:35:11;;;;;;;2.58;1.40;;;;;;;;;;5075632;28;20386;-83
2023/04/12 02:37:37;;;;;;;1.70;1.50;;;;;;;;;;5075190;28;20384;-83
2023/04/12 02:40:05;;;;;;;2.83;1.60;;;;;;;;;;5074748;28;20408;-82
2023/04/12 02:42:31;;;;;;;2.85;1.30;;;;;;;;;;5072479;28;20398;-83
2023/04/12 02:44:57;;;;;;;1.83;1.23;;;;;;;;;;5060809;28;20377;-81
2023/04/12 02:47:27;;;;;;;2.30;1.60;;;;;;;;;;5059142;28;20382;-81
2023/04/12 02:49:53;;;;;;;2.30;1.50;;;;;;;;;;5073749;28;20415;-81
2023/04/12 02:52:19;;;;;;;3.45;1.60;;;;;;;;;;5074494;28;20387;-81
2023/04/12 02:54:46;;;;;;;1.70;1.58;;;;;;;;;;5074452;28;20376;-82
2023/04/12 02:57:12;;;;;;;1.73;1.45;;;;;;;;;;5073394;28;20384;-81
2023/04/12 02:59:39;;;;;;;1.85;1.45;;;;;;;;;;5070282;28;20899;-82
2023/04/12 03:02:05;;;;;;;2.03;1.48;;;;;;;;;;5057108;28;20875;-80
2023/04/12 03:04:31;;;;;;;1.98;1.40;;;;;;;;;;5057365;28;20407;-81
2023/04/12 03:06:57;;;;;;;2.13;1.90;;;;;;;;;;5074247;28;20383;-81
2023/04/12 03:09:24;;;;;;;2.50;1.80;;;;;;;;;;5065988;28;20388;-81
2023/04/12 03:11:50;;;;;;;1.53;1.43;;;;;;;;;;5071016;28;20944;-81
2023/04/12 03:14:16;;;;;;;1.48;1.30;;;;;;;;;;5066842;28;20405;-82
2023/04/12 03:16:42;;;;;;;2.03;1.60;;;;;;;;;;5066732;28;20380;-82
2023/04/12 03:19:08;;;;;;;2.92;1.50;;;;;;;;;;5064140;28;20381;-81
2023/04/12 03:21:35;;;;;;;1.50;1.40;;;;;;;;;;5061981;28;20381;-81
2023/04/12 03:24:03;;;;;;;1.60;1.38;;;;;;;;;;5073628;28;20422;-82
2023/04/12 03:26:29;;;;;;;2.20;1.75;;;;;;;;;;5074847;28;20391;-82
2023/04/12 03:28:58;;;;;;;2.20;1.65;;;;;;;;;;5071898;28;20388;-80
2023/04/12 03:31:26;;;;;;;1.90;1.52;;;;;;;;;;5080372;28;20378;-81
2023/04/12 03:33:52;;;;;;;2.23;1.77;;;;;;;;;;5072843;28;20378;-81
2023/04/12 03:36:20;;;;;;;2.70;2.20;;;;;;;;;;5080052;28;20454;-80
2023/04/12 03:38:46;;;;;;;1.90;1.60;;;;;;;;;;5074648;28;20415;-80
2023/04/12 03:41:12;;;;;;;2.78;2.22;;;;;;;;;;5073312;28;20919;-80
2023/04/12 03:43:39;;;;;;;3.05;2.40;;;;;;;;;;5073308;28;20467;-80
2023/04/12 03:46:05;;;;;;;2.87;2.60;;;;;;;;;;5073515;28;20383;-81
2023/04/12 03:48:31;;;;;;;3.70;2.55;;;;;;;;;;5073177;28;20375;-80
2023/04/12 03:50:58;;;;;;;2.87;2.50;;;;;;;;;;5073367;28;20388;-81
2023/04/12 03:53:26;;;;;;;3.17;2.47;;;;;;;;;;5073178;28;20386;-81
2023/04/12 03:55:52;;;;;;;2.70;2.50;;;;;;;;;;5073121;28;20880;-80
2023/04/12 03:58:19;;;;;;;3.00;2.80;;;;;;;;;;5073278;28;20842;-80
2023/04/12 04:00:45;;;;;;;2.90;2.70;;;;;;;;;;5072713;28;20482;-80
2023/04/12 04:03:12;;;;;;;4.00;3.58;;;;;;;;;;5072946;28;20375;-80
2023/04/12 04:05:38;;;;;;;3.60;3.30;;;;;;;;;;5072579;28;20376;-80
2023/04/12 04:08:05;;;;;;;4.22;3.70;;;;;;;;;;5072786;28;20440;-80
2023/04/12 04:10:31;;;;;;;4.72;4.28;;;;;;;;;;5068545;28;20386;-80
2023/04/12 04:12:57;;;;;;;4.45;4.05;;;;;;;;;;5070991;28;20412;-80
2023/04/12 04:15:26;;;;;;;4.57;4.18;;;;;;;;;;5069472;28;20419;-80
2023/04/12 04:17:53;;;;;;;5.10;4.60;;;;;;;;;;5072291;28;20417;-80
2023/04/12 04:20:19;;;;;;;5.15;4.70;;;;;;;;;;5072549;28;20403;-80
2023/04/12 04:22:47;;;;;;;5.13;4.20;;;;;;;;;;5071932;28;20380;-80
2023/04/12 04:25:13;;;;;;;4.60;4.20;;;;;;;;;;5072480;28;20430;-80
2023/04/12 04:27:40;;;;;;;4.67;4.27;;;;;;;;;;5073113;28;20386;-80
2023/04/12 04:30:07;;;;;;;4.82;4.43;;;;;;;;;;5087341;28;20405;-80
2023/04/12 04:32:33;;;;;;;4.93;4.47;;;;;;;;;;5076991;28;20415;-80
2023/04/12 04:34:59;;;;;;;5.40;4.60;;;;;;;;;;5080790;28;20855;-80
2023/04/12 04:37:26;;;;;;;5.00;4.60;;;;;;;;;;5080707;28;20532;-80
2023/04/12 04:39:52;;;;;;;5.40;4.90;;;;;;;;;;5080981;28;20938;-81
2023/04/12 04:42:18;;;;;;;5.40;5.00;;;;;;;;;;5069970;28;20480;-81
2023/04/12 04:44:44;;;;;;;4.57;4.28;;;;;;;;;;5059702;28;20383;-80
2023/04/12 04:47:10;;;;;;;4.53;4.13;;;;;;;;;;5071808;28;20514;-81
2023/04/12 04:49:37;;;;;;;4.43;4.13;;;;;;;;;;5072040;28;20391;-81
2023/04/12 04:52:03;;;;;;;4.82;4.43;;;;;;;;;;5072060;28;20441;-80
2023/04/12 04:54:31;;;;;;;5.50;5.00;;;;;;;;;;5071922;28;20380;-80
2023/04/12 04:56:58;;;;;;;5.35;4.85;;;;;;;;;;5071447;28;20441;-80
2023/04/12 04:59:24;;;;;;;5.30;4.90;;;;;;;;;;5070727;28;20412;-80
2023/04/12 05:01:51;;;;;;;5.00;4.60;;;;;;;;;;5071090;28;20737;-80
2023/04/12 05:04:17;;;;;;;4.82;4.43;;;;;;;;;;5071654;28;20388;-80
2023/04/12 05:06:43;;;;;;;5.25;4.50;;;;;;;;;;5071830;28;20372;-81
2023/04/12 05:09:09;;;;;;;4.30;4.00;;;;;;;;;;5071742;28;20394;-80
2023/04/12 05:11:36;;;;;;;4.57;4.28;;;;;;;;;;5071443;28;20388;-80
2023/04/12 05:14:02;;;;;;;4.67;4.30;;;;;;;;;;5063532;28;20490;-80
2023/04/12 05:16:28;;;;;;;4.13;3.72;;;;;;;;;;5055418;28;20851;-80
2023/04/12 05:18:54;;;;;;;4.63;4.22;;;;;;;;;;5070336;28;20395;-80
2023/04/12 05:21:20;;;;;;;4.00;3.70;;;;;;;;;;5069486;28;20408;-80
2023/04/12 05:23:47;;;;;;;4.20;3.90;;;;;;;;;;5070332;28;20532;-80
2023/04/12 05:26:13;;;;;;;4.60;4.20;;;;;;;;;;5070547;28;20402;-80
2023/04/12 05:28:39;;;;;;;4.10;3.80;;;;;;;;;;5070575;28;20745;-79
2023/04/12 05:31:05;;;;;;;4.03;3.72;;;;;;;;;;5080536;28;20415;-79
2023/04/12 05:33:33;;;;;;;4.05;3.75;;;;;;;;;;5070829;28;20389;-79
2023/04/12 05:35:59;;;;;;;3.85;3.65;;;;;;;;;;5070888;28;20740;-79
2023/04/12 05:38:26;;;;;;;4.10;3.80;;;;;;;;;;5070629;28;20376;-80
2023/04/12 05:40:52;;;;;;;3.92;3.63;;;;;;;;;;5067285;28;20410;-79
2023/04/12 05:43:18;;;;;;;3.67;3.38;;;;;;;;;;5069804;28;20437;-81
2023/04/12 05:45:44;;;;;;;3.72;3.45;;;;;;;;;;5070222;28;20376;-81
2023/04/12 05:48:10;;;;;;;3.78;3.47;;;;;;;;;;5070562;28;20372;-80
2023/04/12 05:50:36;;;;;;;4.00;3.70;;;;;;;;;;5069876;28;20384;-79
2023/04/12 05:53:02;;;;;;;4.78;3.70;;;;;;;;;;5076407;28;20849;-81
2023/04/12 05:55:29;;;;;;;3.60;3.30;;;;;;;;;;5064966;28;20412;-80
2023/04/12 05:57:55;;;;;;;3.22;3.00;;;;;;;;;;5072539;28;20466;-80
2023/04/12 06:00:22;;;;;;;3.20;3.00;;;;;;;;;;5070890;28;20557;-80
2023/04/12 06:02:49;;;;;;;3.78;3.47;;;;;;;;;;5071246;28;20722;-80
2023/04/12 06:05:18;;;;;;;3.30;3.00;;;;;;;;;;5069243;28;20416;-82
2023/04/12 06:07:47;;;;;;;3.88;3.58;;;;;;;;;;5071282;28;20384;-81
2023/04/12 06:10:15;;;;;;;3.70;3.40;;;;;;;;;;5063135;28;20387;-82
2023/04/12 06:12:41;;;;;;;3.72;3.42;;;;;;;;;;5069422;28;20403;-81
2023/04/12 06:15:07;;;;;;;4.10;3.80;;;;;;;;;;5071433;28;20398;-82
2023/04/12 06:17:33;;;;;;;3.80;3.50;;;;;;;;;;5070279;28;20387;-82
2023/04/12 06:19:59;;;;;;;3.88;3.60;;;;;;;;;;5070749;28;20446;-82
2023/04/12 06:22:25;;;;;;;3.83;3.53;;;;;;;;;;5071069;28;20383;-81
2023/04/12 06:24:51;;;;;;;3.30;3.10;;;;;;;;;;5071207;28;20380;-80
2023/04/12 06:27:19;;;;;;;3.47;3.17;;;;;;;;;;5071279;28;20372;-80
2023/04/12 06:29:45;;;;;;;3.40;3.10;;;;;;;;;;5071007;28;20379;-81
2023/04/12 06:32:11;;;;;;;4.30;3.90;;;;;;;;;;5070984;28;20387;-80
2023/04/12 06:34:37;;;;;;;4.10;3.80;;;;;;;;;;5071223;28;20865;-80
2023/04/12 06:37:03;;;;;;;4.03;3.73;;;;;;;;;;5071146;28;20737;-81
2023/04/12 06:39:29;;;;;;;3.88;3.63;;;;;;;;;;5070502;28;20408;-81
2023/04/12 06:41:56;;;;;;;4.40;4.03;;;;;;;;;;5071055;28;20372;-80
2023/04/12 06:44:22;;;;;;;5.00;4.60;;;;;;;;;;5070535;28;20880;-81
2023/04/12 06:46:48;;;;;;;4.90;4.50;;;;;;;;;;5070944;28;20386;-81
2023/04/12 06:49:14;;;;;;;5.07;4.68;;;;;;;;;;5070773;28;20458;-80
2023/04/12 06:51:40;;;;;;;4.55;4.25;;;;;;;;;;5070997;28;20459;-80
2023/04/12 06:54:06;;;;;;;4.87;4.47;;;;;;;;;;5070546;28;20383;-79
2023/04/12 06:56:33;;;;;;;4.85;4.53;;;;;;;;;;5066685;28;20379;-80
2023/04/12 06:58:59;;;;;;;4.28;3.97;;;;;;;;;;5063205;28;20372;-80
2023/04/12 07:01:25;;;;;;;4.90;4.50;;;;;;;;;;5070535;28;20965;-80
2023/04/12 07:03:51;;;;;;;4.55;4.25;;;;;;;;;;5070513;28;20384;-81
2023/04/12 07:06:17;;;;;;;4.68;4.35;;;;;;;;;;5072566;28;20718;-80
2023/04/12 07:08:43;;;;;;;4.70;4.40;;;;;;;;;;5071319;28;20382;-81
2023/04/12 07:11:09;;;;;;;5.38;4.90;;;;;;;;;;5068505;28;20851;-80
2023/04/12 07:13:35;;;;;;;5.68;5.28;;;;;;;;;;5073866;28;20411;-80
2023/04/12 07:16:02;;;;;;;6.35;5.85;;;;;;;;;;5074119;28;20420;-79
2023/04/12 07:18:28;;;;;;;7.70;7.20;;;;;;;;;;5073843;28;20388;-79
2023/04/12 07:20:55;;;;;;;7.18;6.57;;;;;;;;;;5073789;28;20406;-79
2023/04/12 07:23:22;;;;;;;6.82;6.40;;;;;;;;;;5073789;28;20404;-79
2023/04/12 07:25:48;;;;;;;5.88;5.47;;;;;;;;;;5073931;28;20380;-79
2023/04/12 07:28:14;;;;;;;6.10;5.60;;;;;;;;;;5073943;28;20406;-80
2023/04/12 07:30:40;;;;;;;5.95;5.45;;;;;;;;;;5073785;28;20376;-80
2023/04/12 07:33:06;;;;;;;5.70;5.30;;;;;;;;;;5073562;28;20465;-80
2023/04/12 07:35:33;;;;;;;4.88;4.47;;;;;;;;;;5072957;28;20453;-79
2023/04/12 07:38:00;;;;;;;5.32;4.82;;;;;;;;;;5073676;28;20380;-79
2023/04/12 07:40:26;;;;;;;4.78;4.38;;;;;;;;;;5073444;28;21311;-79
2023/04/12 07:42:52;;;;;;;3.85;3.55;;;;;;;;;;5072242;28;20404;-80
2023/04/12 07:45:18;;;;;;;3.65;3.35;;;;;;;;;;5073489;28;20384;-79
2023/04/12 07:47:45;;;;;;;4.93;4.53;;;;;;;;;;5072001;28;20876;-79
2023/04/12 07:50:11;;;;;;;6.50;6.00;;;;;;;;;;5073313;28;20380;-79
2023/04/12 07:52:37;;;;;;;5.90;5.40;;;;;;;;;;5073103;28;20442;-79
2023/04/12 07:55:03;;;;;;;7.18;6.57;;;;;;;;;;5073263;28;20415;-79
2023/04/12 07:57:30;;;;;;;6.75;6.20;;;;;;;;;;5073186;28;20375;-79
2023/04/12 07:59:56;;;;;;;6.18;5.78;;;;;;;;;;5059158;28;20407;-79
2023/04/12 08:02:25;;;;;;;6.00;5.50;;;;;;;;;;5072998;28;20368;-80
2023/04/12 08:04:54;;;;;;;7.03;6.47;;;;;;;;;;5073348;28;20509;-78
2023/04/12 08:07:25;;;;;;;6.88;6.38;;;;;;;;;;5072894;28;20376;-78
2023/04/12 08:09:51;;;;;;;7.40;6.90;;;;;;;;;;5064250;28;20865;-78
2023/04/12 08:12:17;;;;;;;8.18;7.57;;;;;;;;;;5072739;28;20384;-79
2023/04/12 08:14:43;;;;;;;7.63;7.03;;;;;;;;;;5069625;28;20382;-78
2023/04/12 08:17:10;;;;;;;7.60;7.00;;;;;;;;;;5072633;28;20392;-78
2023/04/12 08:19:36;;;;;;;7.50;6.90;;;;;;;;;;5072115;28;20416;-78
2023/04/12 08:22:03;;;;;;;7.70;7.10;;;;;;;;;;5072596;28;20383;-78
2023/04/12 08:24:29;;;;;;;7.35;6.75;;;;;;;;;;5072595;28;20441;-78
2023/04/12 08:26:56;;;;;;;7.55;6.95;;;;;;;;;;5072451;28;20386;-78
2023/04/12 08:29:22;;;;;;;6.90;6.32;;;;;;;;;;5072724;28;20386;-78
2023/04/12 08:31:48;;;;;;;5.15;4.75;;;;;;;;;;5072667;28;20430;-79
2023/04/12 08:34:14;;;;;;;5.20;4.70;;;;;;;;;;5072320;28;20467;-78
2023/04/12 08:36:40;;;;;;;5.03;4.53;;;;;;;;;;5072215;28;20379;-78
2023/04/12 08:39:06;;;;;;;4.40;4.00;;;;;;;;;;5072247;28;20371;-78
2023/04/12 08:41:34;;;;;;;4.20;3.67;;;;;;;;;;5070934;28;20968;-79
2023/04/12 08:44:00;;;;;;;4.80;4.40;;;;;;;;;;5072185;28;20450;-78
2023/04/12 08:46:27;;;;;;;4.20;3.90;;;;;;;;;;5072270;28;20380;-78
2023/04/12 08:48:53;;;;;;;4.50;4.10;;;;;;;;;;5072324;28;20403;-81
2023/04/12 08:51:20;;;;;;;3.42;3.20;;;;;;;;;;5072110;28;20875;-78
2023/04/12 08:53:46;;;;;;;4.10;3.70;;;;;;;;;;5072059;28;21032;-78
2023/04/12 08:56:13;;;;;;;5.07;3.72;;;;;;;;;;5071779;28;20384;-78
2023/04/12 08:58:43;;;;;;;3.67;3.45;;;;;;;;;;5071940;28;20383;-78
2023/04/12 09:01:13;;;;;;;3.65;3.35;;;;;;;;;;5071235;28;20507;-78
2023/04/12 09:03:39;;;;;;;6.32;4.80;;;;;;;;;;5071698;28;20376;-79
2023/04/12 09:06:05;;;;;;;5.47;4.85;;;;;;;;;;5071717;28;20394;-78
2023/04/12 09:08:31;;;;;;;4.55;3.60;;;;;;;;;;5067029;28;20937;-78
2023/04/12 09:10:58;;;;;;;3.90;3.60;;;;;;;;;;5064651;28;20475;-78
2023/04/12 09:13:34;;;;;;;3.95;3.60;;;;;;;;;;5071305;28;20408;-77
2023/04/12 09:16:00;;;;;;;3.60;3.30;;;;;;;;;;5071618;28;20380;-78
2023/04/12 09:18:26;;;;;;;3.40;3.10;;;;;;;;;;5071496;28;20380;-78
2023/04/12 09:21:10;;;;;;;3.40;3.10;;;;;;;;;;5071861;28;20395;-78
2023/04/12 09:23:36;;;;;;;3.50;3.20;;;;;;;;;;5071851;28;20391;-78
2023/04/12 09:26:03;;;;;;;3.40;3.10;;;;;;;;;;5072095;28;20376;-78
2023/04/12 09:28:29;;;;;;;3.08;2.80;;;;;;;;;;5071172;28;20384;-78
2023/04/12 09:30:59;;;;;;;2.90;2.70;;;;;;;;;;5072007;28;20407;-78
2023/04/12 09:33:38;;;;;;;3.35;3.05;;;;;;;;;;5071725;28;20399;-77
2023/04/12 09:36:07;;;;;;;3.88;3.50;;;;;;;;;;5071608;28;20419;-78
2023/04/12 09:38:38;;;;;;;4.07;3.30;;;;;;;;;;5071661;28;20382;-78
2023/04/12 09:41:26;;;;;;;3.10;2.80;;;;;;;;;;5071586;28;20760;-77
2023/04/12 09:43:52;;;;;;;3.00;2.80;;;;;;;;;;5071547;28;20563;-77
2023/04/12 09:46:18;;;;;;;2.78;2.58;;;;;;;;;;5071442;28;20384;-78
2023/04/12 09:48:50;;;;;;;3.15;2.85;;;;;;;;;;5071560;28;20382;-77
2023/04/12 09:51:27;;;;;;;3.00;2.80;;;;;;;;;;5070471;28;20380;-78
2023/04/12 09:53:55;;;;;;;3.53;3.22;;;;;;;;;;5071395;28;20379;-78
2023/04/12 09:56:22;;;;;;;3.80;2.78;;;;;;;;;;5071307;28;20379;-78
2023/04/12 09:58:52;;;;;;;3.10;2.90;;;;;;;;;;5070095;28;20388;-78
2023/04/12 10:01:18;;;;;;;3.05;2.85;;;;;;;;;;5071413;28;20396;-78
2023/04/12 10:03:44;;;;;;;3.03;2.83;;;;;;;;;;5071272;28;20450;-78
2023/04/12 10:06:11;;;;;;;3.00;2.70;;;;;;;;;;5069817;28;20386;-78
2023/04/12 10:08:37;;;;;;;2.97;2.78;;;;;;;;;;5067986;28;20384;-79
2023/04/12 10:11:04;;;;;;;4.00;3.30;;;;;;;;;;5065111;28;20471;-78
2023/04/12 10:13:32;;;;;;;3.35;3.05;;;;;;;;;;5070881;28;20418;-79
2023/04/12 10:15:59;;;;;;;3.40;3.10;;;;;;;;;;5071120;28;20462;-78
2023/04/12 10:18:26;;;;;;;3.40;3.10;;;;;;;;;;5070884;28;20742;-78
2023/04/12 10:20:52;;;;;;;3.30;3.00;;;;;;;;;;5067736;28;20411;-78
2023/04/12 10:23:18;;;;;;;3.83;2.70;;;;;;;;;;5069808;28;20376;-78
2023/04/12 10:25:46;;;;;;;3.42;2.95;;;;;;;;;;5070895;28;20462;-78
2023/04/12 10:28:20;;;;;;;3.22;3.03;;;;;;;;;;5069587;28;20792;-78
2023/04/12 10:30:52;;;;;;;3.13;2.90;;;;;;;;;;5070272;28;20856;-78
2023/04/12 10:33:19;;;;;;;3.33;2.85;;;;;;;;;;5070561;28;20819;-79
2023/04/12 10:35:49;;;;;;;2.70;2.50;;;;;;;;;;5070838;28;20380;-78
2023/04/12 10:38:16;;;;;;;2.70;2.50;;;;;;;;;;5070767;28;20445;-78
2023/04/12 10:41:02;;;;;;;2.95;2.70;;;;;;;;;;5073403;28;20400;-78
2023/04/12 10:43:28;;;;;;;3.20;2.70;;;;;;;;;;5074485;28;20425;-78
2023/04/12 10:45:55;;;;;;;3.08;2.78;;;;;;;;;;5074290;28;20730;-78
2023/04/12 10:48:31;;;;;;;3.10;2.53;;;;;;;;;;5073641;28;20914;-78
2023/04/12 10:51:13;;;;;;;2.78;2.55;;;;;;;;;;5072898;28;20387;-78
2023/04/12 10:53:39;;;;;;;3.33;3.03;;;;;;;;;;5057862;28;20447;-78
2023/04/12 10:56:24;;;;;;;2.70;2.30;;;;;;;;;;5060721;28;20389;-78
2023/04/12 10:58:50;;;;;;;2.55;1.45;;;;;;;;;;5063140;28;20382;-79
2023/04/12 11:01:17;;;;;;;1.25;1.10;;;;;;;;;;5066884;28;20498;-79
2023/04/12 11:04:02;;;;;;;1.90;1.10;;;;;;;;;;5071928;28;20380;-79
2023/04/12 11:06:40;;;;;;;2.67;1.20;;;;;;;;;;5071168;28;20371;-79
2023/04/12 11:09:06;;;;;;;2.33;1.10;;;;;;;;;;5060872;28;20410;-79
2023/04/12 11:11:34;;;;;;;3.38;1.10;;;;;;;;;;5071595;28;20427;-79
2023/04/12 11:14:01;;;;;;;1.75;1.10;;;;;;;;;;5072093;28;20408;-79
2023/04/12 11:16:27;;;;;;;1.75;1.25;;;;;;;;;;5068343;28;20396;-79
2023/04/12 11:18:53;;;;;;;2.35;1.20;;;;;;;;;;5072795;28;20384;-78
2023/04/12 11:21:21;;;;;;;2.15;1.30;;;;;;;;;;5062972;28;20472;-79
2023/04/12 11:23:47;;;;;;;5.75;4.50;;;;;;;;;;5072732;28;20383;-79
2023/04/12 11:26:19;;;;;;;4.28;2.00;;;;;;;;;;5072153;28;20419;-79
2023/04/12 11:28:46;;;;;;;2.20;1.67;;;;;;;;;;5070335;28;20890;-79
2023/04/12 11:31:13;;;;;;;3.00;1.88;;;;;;;;;;5069591;28;20391;-79
2023/04/12 11:33:40;;;;;;;2.92;1.95;;;;;;;;;;5062998;28;20523;-79
2023/04/12 11:36:06;;;;;;;2.30;1.70;;;;;;;;;;5059648;28;20383;-79
2023/04/12 11:38:34;;;;;;;3.63;2.00;;;;;;;;;;5059906;28;20382;-79
2023/04/12 11:41:00;;;;;;;2.30;1.75;;;;;;;;;;5069602;28;20406;-79
2023/04/12 11:43:26;;;;;;;3.00;1.67;;;;;;;;;;5056747;28;20441;-79
2023/04/12 11:45:59;;;;;;;2.22;1.80;;;;;;;;;;5056533;28;20389;-79
2023/04/12 11:48:25;;;;;;;2.15;1.80;;;;;;;;;;5054331;28;20377;-79
2023/04/12 11:50:52;;;;;;;3.17;1.80;;;;;;;;;;5067963;28;20938;-79
2023/04/12 11:53:18;;;;;;;2.97;1.80;;;;;;;;;;5071219;28;20380;-79
2023/04/12 11:55:48;;;;;;;2.50;1.80;;;;;;;;;;5059727;28;20381;-79
2023/04/12 11:58:14;;;;;;;1.92;1.33;;;;;;;;;;5056793;28;20384;-79
2023/04/12 12:00:43;;;;;;;1.73;1.15;;;;;;;;;;5065370;28;20407;-79
2023/04/12 12:03:10;;;;;;;2.80;1.70;;;;;;;;;;5069313;28;20419;-79
2023/04/12 12:05:37;;;;;;;2.20;1.30;;;;;;;;;;5070322;28;20869;-79
2023/04/12 12:08:06;;;;;;;2.45;1.38;;;;;;;;;;5065790;28;20554;-79
2023/04/12 12:10:32;;;;;;;2.37;1.50;;;;;;;;;;5063071;28;20462;-79
2023/04/12 12:12:59;;;;;;;2.42;1.25;;;;;;;;;;5061276;28;20410;-79
2023/04/12 12:15:29;;;;;;;1.98;1.30;;;;;;;;;;5056887;28;20468;-79
2023/04/12 12:17:55;;;;;;;1.60;1.13;;;;;;;;;;5053279;28;20393;-79
2023/04/12 12:20:21;;;;;;;2.22;1.20;;;;;;;;;;5068853;28;20411;-79
2023/04/12 12:22:48;;;;;;;2.80;1.27;;;;;;;;;;5062847;28;20433;-79
2023/04/12 12:25:17;;;;;;;1.55;1.17;;;;;;;;;;5069912;28;20857;-79
2023/04/12 12:27:47;;;;;;;2.38;1.23;;;;;;;;;;5067809;28;20380;-79
2023/04/12 12:30:16;;;;;;;1.75;1.15;;;;;;;;;;5065689;28;20961;-79
2023/04/12 12:32:43;;;;;;;2.67;1.30;;;;;;;;;;5058365;28;20379;-79
2023/04/12 12:35:10;;;;;;;1.73;1.10;;;;;;;;;;5061979;28;20381;-79
2023/04/12 12:37:36;;;;;;;2.72;1.38;;;;;;;;;;5063371;28;20387;-79
2023/04/12 12:40:20;;;;;;;1.92;1.10;;;;;;;;;;5058690;28;20398;-79
2023/04/12 12:42:53;;;;;;;2.20;1.33;;;;;;;;;;5059779;28;20513;-79
2023/04/12 12:45:20;;;;;;;2.50;1.88;;;;;;;;;;5060163;28;20401;-79
2023/04/12 12:48:02;;;;;;;3.05;1.20;;;;;;;;;;5063458;28;20380;-79
2023/04/12 12:50:29;;;;;;;1.40;0.90;;;;;;;;;;5065169;28;20383;-78
2023/04/12 12:52:55;;;;;;;1.77;1.30;;;;;;;;;;5073572;28;20462;-77
2023/04/12 12:55:22;;;;;;;2.97;1.70;;;;;;;;;;5072940;28;20383;-78
2023/04/12 12:57:49;;;;;;;1.83;1.30;;;;;;;;;;5059522;28;20405;-79
2023/04/12 13:00:16;;;;;;;2.30;1.37;;;;;;;;;;5061927;28;20495;-79
2023/04/12 13:02:42;;;;;;;1.92;1.00;;;;;;;;;;5071524;28;20837;-79
2023/04/12 13:05:09;;;;;;;1.50;0.90;;;;;;;;;;5059378;28;20375;-79
2023/04/12 13:07:35;;;;;;;3.35;1.10;;;;;;;;;;5066088;28;20737;-79
2023/04/12 13:10:01;;;;;;;2.63;1.23;;;;;;;;;;5065817;28;20379;-79
2023/04/12 13:12:27;;;;;;;2.45;1.15;;;;;;;;;;5071870;28;20399;-79
2023/04/12 13:14:53;;;;;;;2.20;1.50;;;;;;;;;;5071946;28;20761;-79
2023/04/12 13:17:20;;;;;;;3.50;1.40;;;;;;;;;;5070773;28;20970;-79
2023/04/12 13:19:46;;;;;;;4.57;2.75;;;;;;;;;;5071859;28;20404;-79
2023/04/12 13:22:15;;;;;;;2.40;1.40;;;;;;;;;;5071908;28;20379;-79
2023/04/12 13:24:42;;;;;;;2.75;1.40;;;;;;;;;;5072014;28;20467;-79
2023/04/12 13:27:08;;;;;;;1.92;1.40;;;;;;;;;;5070440;28;20932;-79
2023/04/12 13:29:34;;;;;;;3.40;1.55;;;;;;;;;;5071814;28;20821;-80
2023/04/12 13:32:00;;;;;;;2.72;1.60;;;;;;;;;;5071745;28;20842;-79
2023/04/12 13:34:26;;;;;;;2.50;1.50;;;;;;;;;;5070445;28;20388;-79
2023/04/12 13:36:52;;;;;;;2.42;1.73;;;;;;;;;;5071745;28;20380;-80
2023/04/12 13:39:18;;;;;;;2.95;1.58;;;;;;;;;;5071672;28;20867;-79
2023/04/12 13:41:44;;;;;;;2.35;1.50;;;;;;;;;;5071398;28;20411;-80
2023/04/12 13:44:10;;;;;;;2.80;1.57;;;;;;;;;;5071525;28;20476;-80
2023/04/12 13:46:36;;;;;;;2.63;1.70;;;;;;;;;;5071612;28;20880;-79
2023/04/12 13:49:02;;;;;;;1.90;1.55;;;;;;;;;;5071573;28;20380;-79
2023/04/12 13:51:28;;;;;;;1.92;1.40;;;;;;;;;;5071579;28;20379;-79
2023/04/12 13:53:55;;;;;;;3.80;1.75;;;;;;;;;;5070201;28;20380;-79
2023/04/12 13:56:21;;;;;;;2.95;1.58;;;;;;;;;;5071317;28;20384;-79
2023/04/12 13:58:47;;;;;;;3.47;1.50;;;;;;;;;;5071420;28;20434;-79
2023/04/12 14:01:13;;;;;;;2.75;1.60;;;;;;;;;;5071076;28;20473;-79
2023/04/12 14:03:39;;;;;;;2.87;1.50;;;;;;;;;;5070179;28;20375;-79
2023/04/12 14:06:06;;;;;;;2.97;1.63;;;;;;;;;;5071246;28;20475;-78
2023/04/12 14:08:32;;;;;;;2.45;1.52;;;;;;;;;;5069856;28;20384;-79
2023/04/12 14:10:59;;;;;;;2.97;1.60;;;;;;;;;;5064230;28;20387;-79
2023/04/12 14:13:26;;;;;;;1.83;1.33;;;;;;;;;;5069481;28;20465;-78
2023/04/12 14:15:53;;;;;;;1.83;1.30;;;;;;;;;;5073435;28;20420;-79
2023/04/12 14:18:22;;;;;;;2.10;1.27;;;;;;;;;;5075070;28;20379;-79
2023/04/12 14:20:51;;;;;;;2.40;1.10;;;;;;;;;;5076184;28;20395;-79
2023/04/12 14:23:17;;;;;;;2.08;1.10;;;;;;;;;;5074893;28;20429;-78
2023/04/12 14:25:43;;;;;;;1.23;1.08;;;;;;;;;;5075926;28;20372;-80
2023/04/12 14:28:09;;;;;;;1.55;0.90;;;;;;;;;;5074154;28;20459;-80
2023/04/12 14:30:35;;;;;;;1.70;0.80;;;;;;;;;;5075164;28;20873;-80
2023/04/12 14:33:01;;;;;;;1.30;0.70;;;;;;;;;;5076230;28;20407;-78
2023/04/12 14:35:27;;;;;;;1.90;0.98;;;;;;;;;;5074702;28;21010;-79
2023/04/12 14:37:55;;;;;;;1.25;0.68;;;;;;;;;;5076741;28;20384;-79
2023/04/12 14:40:21;;;;;;;1.17;0.57;;;;;;;;;;5074562;28;21229;-80
2023/04/12 14:42:47;;;;;;;0.70;0.43;;;;;;;;;;5076429;28;20399;-79
2023/04/12 14:45:14;;;;;;;0.52;0.50;;;;;;;;;;5076232;28;20386;-79